Stations météo

réclame
Mon MeteoGroup
Fuengirola, Espagne (8480): Température de l'air & dewpoint: 14.11.2018 13:00:00 - 20.11.2018 13:00:00 (CET)Fuengirola, Espagne (8480): Vitesse du vent & gusts: 14.11.2018 13:00:00 - 20.11.2018 13:00:00 (CET)Fuengirola, Espagne (8480): Direction du vent: 14.11.2018 13:00:00 - 20.11.2018 13:00:00 (CET)Fuengirola, Espagne (8480): Quantités de précipitations: 14.11.2018 13:00:00 - 20.11.2018 13:00:00 (CET)
Date & Time tt [°C] td [°C] ff [km/h] ff [knt] fx [km/h] fx [knt] dd rr [mm]
20.11.2018 13:00:00 - - - - - - - -
20.11.2018 12:00:00 16,9 15,6 9 5 34 18 W -
20.11.2018 11:00:00 16,0 15,4 4 2 24 13 W -
20.11.2018 10:00:00 15,6 15,0 8 4 28 15 W -
20.11.2018 09:00:00 14,8 14,5 6 3 33 18 WSW -
20.11.2018 08:00:00 14,5 14,2 5 3 16 9 NNW -
20.11.2018 07:00:00 14,7 14,1 3 2 15 8 NW -
20.11.2018 06:00:00 15,1 14,0 8 4 18 10 W -
20.11.2018 05:00:00 15,3 14,2 6 3 18 10 W -
20.11.2018 04:00:00 15,2 14,2 6 3 25 13 W -
20.11.2018 03:00:00 15,1 14,1 6 3 15 8 W -
20.11.2018 02:00:00 15,1 14,0 6 3 18 10 W -
20.11.2018 01:00:00 15,1 14,0 8 4 22 12 W -
20.11.2018 00:00:00 14,7 13,6 5 3 13 7 W -
19.11.2018 23:00:00 15,1 13,5 5 3 16 9 NW -
19.11.2018 22:00:00 15,0 13,0 4 2 11 6 NW -
19.11.2018 21:00:00 15,2 12,9 2 1 9 5 NNW -
19.11.2018 20:00:00 15,3 13,2 3 2 11 6 W -
19.11.2018 19:00:00 15,6 13,3 4 2 19 10 W -
19.11.2018 18:00:00 16,2 13,5 5 3 20 11 W -
19.11.2018 17:00:00 16,5 14,0 4 2 27 15 W -
19.11.2018 16:00:00 16,0 13,8 5 3 35 19 W -
19.11.2018 15:00:00 16,3 15,0 9 5 38 20 W -
19.11.2018 14:00:00 16,2 14,7 8 5 32 17 W -
19.11.2018 13:00:00 16,2 15,1 6 4 27 15 WSW -
19.11.2018 12:00:00 16,1 15,0 10 5 28 15 W -
19.11.2018 11:00:00 15,4 14,9 3 2 24 13 W -
19.11.2018 10:00:00 14,3 14,1 6 3 17 9 W 0,0
19.11.2018 09:00:00 13,7 13,5 4 2 12 6 W 0,0
19.11.2018 08:00:00 13,6 13,4 5 3 12 7 NNW 0,0
19.11.2018 07:00:00 14,0 13,8 4 2 16 8 WNW -
19.11.2018 06:00:00 14,7 14,5 5 3 25 13 W 0,0
19.11.2018 05:00:00 14,8 14,6 6 4 34 19 W 0,0
19.11.2018 04:00:00 14,3 14,1 4 2 27 15 WSW 0,0
19.11.2018 03:00:00 14,0 13,8 2 1 12 7 W 0,0
19.11.2018 02:00:00 14,2 14,0 5 3 15 8 WNW 0,0
19.11.2018 01:00:00 14,3 14,1 4 2 17 9 WNW -
19.11.2018 00:00:00 14,4 14,1 5 3 13 7 NW 0,0
18.11.2018 23:00:00 14,6 14,3 2 1 10 5 W 0,0
18.11.2018 22:00:00 15,0 14,5 5 3 35 19 W 0,0
18.11.2018 21:00:00 15,1 14,8 13 7 22 12 ESE 0,0
18.11.2018 20:00:00 15,1 14,8 12 6 19 11 E 0,0
18.11.2018 19:00:00 14,8 14,5 3 2 9 5 NE -
18.11.2018 18:00:00 15,4 15,1 1 1 12 7 W 0,0
18.11.2018 17:00:00 16,0 15,8 1 1 18 10 WSW 0,0
18.11.2018 16:00:00 15,7 15,5 6 3 31 17 ENE 0,0
18.11.2018 15:00:00 15,6 15,4 13 7 23 12 E 0,0
18.11.2018 14:00:00 15,2 15,0 1 1 9 5 N 0,0
18.11.2018 13:00:00 14,0 13,8 8 4 22 12 ENE -
18.11.2018 12:00:00 13,7 13,4 13 7 58 31 SSE 0,0
18.11.2018 11:00:00 17,1 16,0 39 21 59 32 ESE 0,0
18.11.2018 10:00:00 17,1 16,0 37 20 52 28 ESE 0,0
18.11.2018 09:00:00 17,0 16,2 34 19 52 28 ESE 0,0
18.11.2018 08:00:00 17,1 16,3 37 20 53 29 SE 0,0
18.11.2018 07:00:00 17,3 16,7 30 16 45 25 SE -
18.11.2018 06:00:00 17,2 16,6 21 11 29 16 SE 0,0
18.11.2018 05:00:00 17,3 16,7 21 11 32 18 ESE 0,0
18.11.2018 04:00:00 17,2 16,6 25 14 36 19 ESE 0,0
18.11.2018 03:00:00 17,3 16,8 19 10 36 19 E 0,0
18.11.2018 02:00:00 17,4 16,8 24 13 36 19 ESE 0,0
18.11.2018 01:00:00 17,4 16,8 23 12 36 20 ESE -
18.11.2018 00:00:00 17,5 17,0 23 12 32 17 SE 0,0
17.11.2018 23:00:00 17,5 17,0 13 7 21 11 SE 0,0
17.11.2018 22:00:00 17,5 17,0 9 5 20 11 E 0,0
17.11.2018 21:00:00 17,5 17,0 14 8 23 13 ESE 0,0
17.11.2018 20:00:00 17,6 17,0 9 5 25 14 E 0,0
17.11.2018 19:00:00 17,6 17,0 17 9 25 14 E -
17.11.2018 18:00:00 17,7 16,9 18 10 25 14 E 0,0
17.11.2018 17:00:00 17,8 16,7 16 9 28 15 E 0,0
17.11.2018 16:00:00 18,1 17,0 18 10 27 14 E 0,0
17.11.2018 15:00:00 17,8 16,8 17 9 24 13 E 0,0
17.11.2018 14:00:00 18,0 16,7 15 8 24 13 E 0,0
17.11.2018 13:00:00 18,0 16,7 16 9 22 12 E -
17.11.2018 12:00:00 18,1 17,0 11 6 19 10 E 0,0
17.11.2018 11:00:00 17,9 16,8 9 5 16 9 E 0,0
17.11.2018 10:00:00 17,9 16,8 7 4 16 9 E 0,0
17.11.2018 09:00:00 17,6 16,6 9 5 16 9 ENE 0,0
17.11.2018 08:00:00 17,5 16,7 5 3 16 8 E 0,0
17.11.2018 07:00:00 17,4 16,8 6 4 12 7 ENE -
17.11.2018 06:00:00 17,5 16,9 7 4 13 7 E 0,0
17.11.2018 05:00:00 17,6 17,0 1 0 4 2 ENE 0,0
17.11.2018 04:00:00 17,4 16,8 3 1 9 5 N 0,0
17.11.2018 03:00:00 17,6 17,0 5 3 8 4 E 0,0
17.11.2018 02:00:00 17,8 17,2 1 0 6 3 E 0,0
17.11.2018 01:00:00 17,8 16,7 2 1 9 5 E -
17.11.2018 00:00:00 17,8 16,7 0 0 5 3 S 0,0
16.11.2018 23:00:00 17,8 16,5 1 0 5 3 E 0,0
16.11.2018 22:00:00 18,0 16,5 2 1 6 3 N 0,0
16.11.2018 21:00:00 18,1 16,6 3 1 8 4 NNE 0,0
16.11.2018 20:00:00 18,2 16,7 5 3 9 5 E 0,0
16.11.2018 19:00:00 18,1 16,6 3 1 10 6 NE -
16.11.2018 18:00:00 18,2 16,5 5 3 13 7 ENE 0,0
16.11.2018 17:00:00 18,5 16,7 5 3 9 5 ENE 0,0
16.11.2018 16:00:00 18,7 16,7 5 3 14 7 ENE 0,0
16.11.2018 15:00:00 18,7 16,5 6 3 11 6 ENE 0,0
16.11.2018 14:00:00 18,8 16,2 5 3 10 6 NE 0,0
16.11.2018 13:00:00 18,4 16,4 3 2 9 5 NE -
16.11.2018 12:00:00 18,2 16,5 4 2 12 6 E 0,0
16.11.2018 11:00:00 17,8 16,7 7 4 15 8 ENE 0,0
16.11.2018 10:00:00 17,4 16,4 8 4 16 9 ENE 0,0
16.11.2018 09:00:00 17,2 16,6 9 5 14 8 ENE 0,0
16.11.2018 08:00:00 17,1 16,6 9 5 16 9 ENE 0,0
16.11.2018 07:00:00 17,0 16,5 7 4 13 7 ENE -
16.11.2018 06:00:00 17,1 16,5 9 5 18 10 ENE 0,0
16.11.2018 05:00:00 17,2 16,6 11 6 20 11 E 0,0
16.11.2018 04:00:00 17,2 16,6 9 5 14 8 ENE 0,0
16.11.2018 03:00:00 17,0 16,4 11 6 17 9 ENE 0,0
16.11.2018 02:00:00 17,0 16,4 11 6 17 9 ENE 0,0
16.11.2018 01:00:00 16,8 16,2 10 5 15 8 ENE -
16.11.2018 00:00:00 17,0 16,2 10 5 16 9 ENE 0,0
15.11.2018 23:00:00 17,2 16,2 12 7 21 11 ENE 0,0
15.11.2018 22:00:00 17,0 16,2 13 7 27 14 ENE 0,0
15.11.2018 21:00:00 17,2 16,1 19 10 26 14 ENE 0,0
15.11.2018 20:00:00 17,5 16,0 15 8 22 12 E 0,0
15.11.2018 19:00:00 17,3 16,2 10 6 18 10 ENE -
15.11.2018 18:00:00 17,7 16,4 1 0 8 4 E 0,0
15.11.2018 17:00:00 18,0 16,9 4 2 13 7 SSW 0,0
15.11.2018 16:00:00 18,1 17,5 6 3 11 6 S 0,0
15.11.2018 15:00:00 17,3 16,7 8 4 16 8 SSW 0,0
15.11.2018 14:00:00 17,7 17,2 11 6 14 8 S 0,0
15.11.2018 13:00:00 17,2 16,6 9 5 13 7 S -
15.11.2018 12:00:00 17,1 16,5 4 2 10 5 SW 0,0
15.11.2018 11:00:00 17,0 16,2 1 1 6 4 SSE 0,0
15.11.2018 10:00:00 16,8 15,8 1 1 6 3 SSW 0,0
15.11.2018 09:00:00 16,2 15,4 4 2 7 4 N 0,0
15.11.2018 08:00:00 16,0 15,4 4 2 11 6 WNW 0,0
15.11.2018 07:00:00 15,9 15,3 7 4 14 8 WNW -
15.11.2018 06:00:00 15,7 14,9 3 1 16 9 N 0,0
15.11.2018 05:00:00 16,1 15,3 14 8 23 12 ESE 0,0
15.11.2018 04:00:00 16,4 15,3 17 9 29 16 E 0,0
15.11.2018 03:00:00 17,2 15,7 11 6 21 11 E 0,0
15.11.2018 02:00:00 17,7 16,2 13 7 22 12 E 0,0
15.11.2018 01:00:00 18,2 16,4 4 2 11 6 NE -
15.11.2018 00:00:00 18,3 16,3 1 0 16 9 NNE 0,0
14.11.2018 23:00:00 18,6 16,2 8 4 21 11 SSE 0,0
14.11.2018 22:00:00 18,2 16,2 5 3 22 12 NE 0,0
14.11.2018 21:00:00 17,9 16,2 3 2 15 8 NNW 0,0
14.11.2018 20:00:00 18,3 16,6 13 7 27 15 ESE 0,0
14.11.2018 19:00:00 18,5 16,5 17 9 34 18 ESE -
14.11.2018 18:00:00 18,6 16,4 23 12 37 20 E 0,0
14.11.2018 17:00:00 18,6 16,6 15 8 26 14 ENE 0,0
14.11.2018 16:00:00 18,5 16,8 12 7 21 12 ENE 0,0
14.11.2018 15:00:00 18,8 16,9 13 7 24 13 ENE 0,0
14.11.2018 14:00:00 18,7 16,9 13 7 24 13 E 0,0
14.11.2018 13:00:00 18,8 16,9 13 7 22 12 ENE -

tt = Température de l'air
td = dewpoint
ff = Vitesse du vent
fx = gusts
dd = Direction du vent
rr = Quantités de précipitations

stations d'obs. à proximité